sensor_id;sensor_type;location;lat;lon;timestamp;P1;durP1;ratioP1;P2;durP2;ratioP2
39370;SDS011;25099;51.946;4.838;2023-05-14T00:01:03;22.25;;;18.85;;
39370;SDS011;25099;51.946;4.838;2023-05-14T00:03:29;26.73;;;18.58;;
39370;SDS011;25099;51.946;4.838;2023-05-14T00:05:54;24.10;;;19.02;;
39370;SDS011;25099;51.946;4.838;2023-05-14T00:08:20;28.10;;;19.15;;
39370;SDS011;25099;51.946;4.838;2023-05-14T00:10:46;21.90;;;17.83;;
39370;SDS011;25099;51.946;4.838;2023-05-14T00:13:11;21.35;;;17.42;;
39370;SDS011;25099;51.946;4.838;2023-05-14T00:15:37;21.73;;;18.70;;
39370;SDS011;25099;51.946;4.838;2023-05-14T00:18:02;24.60;;;18.40;;
39370;SDS011;25099;51.946;4.838;2023-05-14T00:20:28;22.20;;;18.30;;
39370;SDS011;25099;51.946;4.838;2023-05-14T00:22:53;22.88;;;18.38;;
39370;SDS011;25099;51.946;4.838;2023-05-14T00:25:19;21.92;;;16.75;;
39370;SDS011;25099;51.946;4.838;2023-05-14T00:27:44;21.40;;;17.27;;
39370;SDS011;25099;51.946;4.838;2023-05-14T00:30:10;19.67;;;17.33;;
39370;SDS011;25099;51.946;4.838;2023-05-14T00:32:36;21.85;;;17.23;;
39370;SDS011;25099;51.946;4.838;2023-05-14T00:35:01;22.85;;;17.08;;
39370;SDS011;25099;51.946;4.838;2023-05-14T00:37:28;20.73;;;17.20;;
39370;SDS011;25099;51.946;4.838;2023-05-14T00:39:54;23.98;;;16.40;;
39370;SDS011;25099;51.946;4.838;2023-05-14T00:42:19;21.08;;;16.00;;
39370;SDS011;25099;51.946;4.838;2023-05-14T00:44:45;26.80;;;16.80;;
39370;SDS011;25099;51.946;4.838;2023-05-14T00:47:11;26.77;;;16.52;;
39370;SDS011;25099;51.946;4.838;2023-05-14T00:49:36;23.42;;;16.70;;
39370;SDS011;25099;51.946;4.838;2023-05-14T00:52:04;19.48;;;15.77;;
39370;SDS011;25099;51.946;4.838;2023-05-14T00:54:30;19.02;;;15.80;;
39370;SDS011;25099;51.946;4.838;2023-05-14T00:56:58;19.38;;;16.27;;
39370;SDS011;25099;51.946;4.838;2023-05-14T00:59:24;26.35;;;16.75;;
39370;SDS011;25099;51.946;4.838;2023-05-14T01:01:50;25.40;;;16.23;;
39370;SDS011;25099;51.946;4.838;2023-05-14T01:04:15;19.02;;;15.13;;
39370;SDS011;25099;51.946;4.838;2023-05-14T01:06:58;17.55;;;15.40;;
39370;SDS011;25099;51.946;4.838;2023-05-14T01:09:35;22.20;;;14.57;;
39370;SDS011;25099;51.946;4.838;2023-05-14T01:14:53;17.00;;;14.20;;
39370;SDS011;25099;51.946;4.838;2023-05-14T01:17:28;20.58;;;15.73;;
39370;SDS011;25099;51.946;4.838;2023-05-14T01:20:01;22.27;;;14.88;;
39370;SDS011;25099;51.946;4.838;2023-05-14T01:22:27;20.58;;;16.40;;
39370;SDS011;25099;51.946;4.838;2023-05-14T01:24:53;18.23;;;16.33;;
39370;SDS011;25099;51.946;4.838;2023-05-14T01:30:08;19.65;;;15.30;;
39370;SDS011;25099;51.946;4.838;2023-05-14T01:32:53;18.83;;;16.17;;
39370;SDS011;25099;51.946;4.838;2023-05-14T01:35:22;22.15;;;16.23;;
39370;SDS011;25099;51.946;4.838;2023-05-14T01:37:51;23.77;;;16.40;;
39370;SDS011;25099;51.946;4.838;2023-05-14T01:40:19;21.35;;;15.82;;
39370;SDS011;25099;51.946;4.838;2023-05-14T01:42:45;18.58;;;15.45;;
39370;SDS011;25099;51.946;4.838;2023-05-14T01:45:11;20.38;;;15.80;;
39370;SDS011;25099;51.946;4.838;2023-05-14T01:47:37;18.23;;;14.82;;
39370;SDS011;25099;51.946;4.838;2023-05-14T01:50:03;17.60;;;15.15;;
39370;SDS011;25099;51.946;4.838;2023-05-14T01:52:29;20.85;;;15.75;;
39370;SDS011;25099;51.946;4.838;2023-05-14T01:54:54;16.58;;;14.75;;
39370;SDS011;25099;51.946;4.838;2023-05-14T01:57:22;22.75;;;15.95;;
39370;SDS011;25099;51.946;4.838;2023-05-14T01:59:47;16.13;;;14.02;;
39370;SDS011;25099;51.946;4.838;2023-05-14T02:02:13;17.95;;;14.45;;
39370;SDS011;25099;51.946;4.838;2023-05-14T02:04:38;22.17;;;15.35;;
39370;SDS011;25099;51.946;4.838;2023-05-14T02:07:04;17.45;;;14.45;;
39370;SDS011;25099;51.946;4.838;2023-05-14T02:09:30;17.58;;;13.90;;
39370;SDS011;25099;51.946;4.838;2023-05-14T02:11:55;15.57;;;13.98;;
39370;SDS011;25099;51.946;4.838;2023-05-14T02:14:21;18.48;;;13.32;;
39370;SDS011;25099;51.946;4.838;2023-05-14T02:16:47;19.92;;;14.15;;
39370;SDS011;25099;51.946;4.838;2023-05-14T02:19:12;19.85;;;13.95;;
39370;SDS011;25099;51.946;4.838;2023-05-14T02:21:38;22.40;;;14.13;;
39370;SDS011;25099;51.946;4.838;2023-05-14T02:24:04;26.13;;;14.63;;
39370;SDS011;25099;51.946;4.838;2023-05-14T02:26:29;15.40;;;13.82;;
39370;SDS011;25099;51.946;4.838;2023-05-14T02:28:55;17.30;;;14.57;;
39370;SDS011;25099;51.946;4.838;2023-05-14T02:31:20;17.25;;;15.02;;
39370;SDS011;25099;51.946;4.838;2023-05-14T02:33:46;17.75;;;14.55;;
39370;SDS011;25099;51.946;4.838;2023-05-14T02:36:11;14.23;;;12.63;;
39370;SDS011;25099;51.946;4.838;2023-05-14T02:38:37;18.98;;;14.05;;
39370;SDS011;25099;51.946;4.838;2023-05-14T02:41:03;16.90;;;14.95;;
39370;SDS011;25099;51.946;4.838;2023-05-14T02:43:28;15.80;;;14.13;;
39370;SDS011;25099;51.946;4.838;2023-05-14T02:45:54;19.83;;;15.45;;
39370;SDS011;25099;51.946;4.838;2023-05-14T02:48:19;22.05;;;15.20;;
39370;SDS011;25099;51.946;4.838;2023-05-14T02:50:45;22.25;;;15.57;;
39370;SDS011;25099;51.946;4.838;2023-05-14T02:53:12;20.17;;;15.32;;
39370;SDS011;25099;51.946;4.838;2023-05-14T02:55:37;19.10;;;14.07;;
39370;SDS011;25099;51.946;4.838;2023-05-14T02:58:03;17.10;;;15.18;;
39370;SDS011;25099;51.946;4.838;2023-05-14T03:00:28;17.05;;;14.15;;
39370;SDS011;25099;51.946;4.838;2023-05-14T03:02:54;16.98;;;15.15;;
39370;SDS011;25099;51.946;4.838;2023-05-14T03:05:19;20.23;;;15.38;;
39370;SDS011;25099;51.946;4.838;2023-05-14T03:07:49;27.52;;;15.50;;
39370;SDS011;25099;51.946;4.838;2023-05-14T03:10:17;20.02;;;15.57;;
39370;SDS011;25099;51.946;4.838;2023-05-14T03:12:43;17.30;;;14.73;;
39370;SDS011;25099;51.946;4.838;2023-05-14T03:15:08;17.27;;;14.90;;
39370;SDS011;25099;51.946;4.838;2023-05-14T03:17:34;22.20;;;15.75;;
39370;SDS011;25099;51.946;4.838;2023-05-14T03:20:00;22.05;;;15.15;;
39370;SDS011;25099;51.946;4.838;2023-05-14T03:22:26;22.63;;;14.75;;
39370;SDS011;25099;51.946;4.838;2023-05-14T03:24:51;20.40;;;15.35;;
39370;SDS011;25099;51.946;4.838;2023-05-14T03:27:17;20.85;;;14.43;;
39370;SDS011;25099;51.946;4.838;2023-05-14T03:29:43;21.77;;;15.77;;
39370;SDS011;25099;51.946;4.838;2023-05-14T03:32:08;27.85;;;15.38;;
39370;SDS011;25099;51.946;4.838;2023-05-14T03:34:34;20.27;;;15.48;;
39370;SDS011;25099;51.946;4.838;2023-05-14T03:37:00;20.02;;;16.48;;
39370;SDS011;25099;51.946;4.838;2023-05-14T03:39:26;20.05;;;16.15;;
39370;SDS011;25099;51.946;4.838;2023-05-14T03:41:51;21.55;;;15.82;;
39370;SDS011;25099;51.946;4.838;2023-05-14T03:44:17;20.15;;;15.50;;
39370;SDS011;25099;51.946;4.838;2023-05-14T03:46:43;21.05;;;15.73;;
39370;SDS011;25099;51.946;4.838;2023-05-14T03:49:08;24.85;;;15.88;;
39370;SDS011;25099;51.946;4.838;2023-05-14T03:51:34;21.35;;;15.40;;
39370;SDS011;25099;51.946;4.838;2023-05-14T03:54:00;23.05;;;16.50;;
39370;SDS011;25099;51.946;4.838;2023-05-14T03:56:25;21.90;;;15.70;;
39370;SDS011;25099;51.946;4.838;2023-05-14T03:58:51;21.58;;;16.10;;
39370;SDS011;25099;51.946;4.838;2023-05-14T04:01:17;19.77;;;15.05;;
39370;SDS011;25099;51.946;4.838;2023-05-14T04:03:42;20.95;;;16.98;;
39370;SDS011;25099;51.946;4.838;2023-05-14T04:06:08;22.35;;;16.58;;
39370;SDS011;25099;51.946;4.838;2023-05-14T04:08:33;20.08;;;16.08;;
39370;SDS011;25099;51.946;4.838;2023-05-14T04:10:59;24.73;;;15.57;;
39370;SDS011;25099;51.946;4.838;2023-05-14T04:13:24;25.73;;;15.25;;
39370;SDS011;25099;51.946;4.838;2023-05-14T04:15:50;19.63;;;15.70;;
39370;SDS011;25099;51.946;4.838;2023-05-14T04:18:15;19.95;;;14.13;;
39370;SDS011;25099;51.946;4.838;2023-05-14T04:20:41;20.70;;;16.15;;
39370;SDS011;25099;51.946;4.838;2023-05-14T04:23:07;18.73;;;16.52;;
39370;SDS011;25099;51.946;4.838;2023-05-14T04:25:32;18.80;;;15.77;;
39370;SDS011;25099;51.946;4.838;2023-05-14T04:27:58;22.50;;;16.45;;
39370;SDS011;25099;51.946;4.838;2023-05-14T04:30:23;22.85;;;16.50;;
39370;SDS011;25099;51.946;4.838;2023-05-14T04:32:49;23.25;;;17.00;;
39370;SDS011;25099;51.946;4.838;2023-05-14T04:35:15;19.67;;;17.58;;
39370;SDS011;25099;51.946;4.838;2023-05-14T04:37:40;23.65;;;16.45;;
39370;SDS011;25099;51.946;4.838;2023-05-14T04:40:07;25.65;;;17.48;;
39370;SDS011;25099;51.946;4.838;2023-05-14T04:42:35;20.50;;;16.92;;
39370;SDS011;25099;51.946;4.838;2023-05-14T04:45:01;22.80;;;18.42;;
39370;SDS011;25099;51.946;4.838;2023-05-14T04:47:27;21.27;;;18.70;;
39370;SDS011;25099;51.946;4.838;2023-05-14T04:49:53;22.48;;;18.85;;
39370;SDS011;25099;51.946;4.838;2023-05-14T04:52:19;27.02;;;19.35;;
39370;SDS011;25099;51.946;4.838;2023-05-14T04:54:44;22.73;;;18.75;;
39370;SDS011;25099;51.946;4.838;2023-05-14T04:57:10;25.25;;;19.63;;
39370;SDS011;25099;51.946;4.838;2023-05-14T04:59:35;22.95;;;18.33;;
39370;SDS011;25099;51.946;4.838;2023-05-14T05:02:01;27.92;;;18.52;;
39370;SDS011;25099;51.946;4.838;2023-05-14T05:04:27;24.90;;;19.90;;
39370;SDS011;25099;51.946;4.838;2023-05-14T05:06:52;27.15;;;19.48;;
39370;SDS011;25099;51.946;4.838;2023-05-14T05:09:18;23.90;;;19.60;;
39370;SDS011;25099;51.946;4.838;2023-05-14T05:11:43;26.10;;;18.98;;
39370;SDS011;25099;51.946;4.838;2023-05-14T05:14:09;25.67;;;19.20;;
39370;SDS011;25099;51.946;4.838;2023-05-14T05:16:34;25.58;;;19.80;;
39370;SDS011;25099;51.946;4.838;2023-05-14T05:19:00;23.10;;;17.67;;
39370;SDS011;25099;51.946;4.838;2023-05-14T05:21:25;23.08;;;19.33;;
39370;SDS011;25099;51.946;4.838;2023-05-14T05:23:51;29.65;;;19.08;;
39370;SDS011;25099;51.946;4.838;2023-05-14T05:26:17;26.55;;;19.33;;
39370;SDS011;25099;51.946;4.838;2023-05-14T05:28:42;27.85;;;17.98;;
39370;SDS011;25099;51.946;4.838;2023-05-14T05:31:08;23.73;;;19.13;;
39370;SDS011;25099;51.946;4.838;2023-05-14T05:33:33;26.92;;;17.98;;
39370;SDS011;25099;51.946;4.838;2023-05-14T05:35:59;26.42;;;19.00;;
39370;SDS011;25099;51.946;4.838;2023-05-14T05:38:25;23.30;;;17.30;;
39370;SDS011;25099;51.946;4.838;2023-05-14T05:40:50;20.83;;;18.08;;
39370;SDS011;25099;51.946;4.838;2023-05-14T05:43:16;21.90;;;16.38;;
39370;SDS011;25099;51.946;4.838;2023-05-14T05:45:42;22.38;;;16.98;;
39370;SDS011;25099;51.946;4.838;2023-05-14T05:48:07;21.45;;;17.48;;
39370;SDS011;25099;51.946;4.838;2023-05-14T05:50:33;22.20;;;17.27;;
39370;SDS011;25099;51.946;4.838;2023-05-14T05:52:59;20.08;;;17.45;;
39370;SDS011;25099;51.946;4.838;2023-05-14T05:55:24;31.60;;;18.23;;
39370;SDS011;25099;51.946;4.838;2023-05-14T05:57:50;22.45;;;18.15;;
39370;SDS011;25099;51.946;4.838;2023-05-14T06:00:16;21.58;;;16.67;;
39370;SDS011;25099;51.946;4.838;2023-05-14T06:02:42;19.23;;;17.27;;
39370;SDS011;25099;51.946;4.838;2023-05-14T06:05:08;24.48;;;17.65;;
39370;SDS011;25099;51.946;4.838;2023-05-14T06:07:35;19.95;;;17.83;;
39370;SDS011;25099;51.946;4.838;2023-05-14T06:10:00;24.30;;;18.10;;
39370;SDS011;25099;51.946;4.838;2023-05-14T06:12:26;22.80;;;17.83;;
39370;SDS011;25099;51.946;4.838;2023-05-14T06:14:53;23.55;;;18.02;;
39370;SDS011;25099;51.946;4.838;2023-05-14T06:17:19;25.08;;;18.63;;
39370;SDS011;25099;51.946;4.838;2023-05-14T06:19:45;28.02;;;21.45;;
39370;SDS011;25099;51.946;4.838;2023-05-14T06:22:11;32.20;;;20.48;;
39370;SDS011;25099;51.946;4.838;2023-05-14T06:24:36;29.83;;;21.27;;
39370;SDS011;25099;51.946;4.838;2023-05-14T06:27:02;26.08;;;20.42;;
39370;SDS011;25099;51.946;4.838;2023-05-14T06:29:28;29.08;;;21.55;;
39370;SDS011;25099;51.946;4.838;2023-05-14T06:31:53;31.15;;;23.38;;
39370;SDS011;25099;51.946;4.838;2023-05-14T06:34:21;33.55;;;23.50;;
39370;SDS011;25099;51.946;4.838;2023-05-14T06:36:46;30.00;;;23.05;;
39370;SDS011;25099;51.946;4.838;2023-05-14T06:39:12;33.83;;;23.15;;
39370;SDS011;25099;51.946;4.838;2023-05-14T06:41:37;34.80;;;22.88;;
39370;SDS011;25099;51.946;4.838;2023-05-14T06:44:03;25.65;;;21.55;;
39370;SDS011;25099;51.946;4.838;2023-05-14T06:46:28;36.10;;;22.15;;
39370;SDS011;25099;51.946;4.838;2023-05-14T06:48:54;27.48;;;20.70;;
39370;SDS011;25099;51.946;4.838;2023-05-14T06:51:19;32.22;;;21.83;;
39370;SDS011;25099;51.946;4.838;2023-05-14T06:53:45;26.80;;;20.38;;
39370;SDS011;25099;51.946;4.838;2023-05-14T06:56:12;27.80;;;22.13;;
39370;SDS011;25099;51.946;4.838;2023-05-14T06:58:38;25.77;;;20.05;;
39370;SDS011;25099;51.946;4.838;2023-05-14T07:01:04;32.28;;;20.40;;
39370;SDS011;25099;51.946;4.838;2023-05-14T07:03:30;25.90;;;19.85;;
39370;SDS011;25099;51.946;4.838;2023-05-14T07:05:56;24.10;;;18.35;;
39370;SDS011;25099;51.946;4.838;2023-05-14T07:08:21;21.45;;;17.52;;
39370;SDS011;25099;51.946;4.838;2023-05-14T07:10:47;20.45;;;17.80;;
39370;SDS011;25099;51.946;4.838;2023-05-14T07:13:13;23.20;;;18.30;;
39370;SDS011;25099;51.946;4.838;2023-05-14T07:15:38;24.25;;;18.02;;
39370;SDS011;25099;51.946;4.838;2023-05-14T07:18:04;23.77;;;17.67;;
39370;SDS011;25099;51.946;4.838;2023-05-14T07:20:29;20.40;;;16.08;;
39370;SDS011;25099;51.946;4.838;2023-05-14T07:22:55;20.42;;;17.40;;
39370;SDS011;25099;51.946;4.838;2023-05-14T07:25:20;26.40;;;17.60;;
39370;SDS011;25099;51.946;4.838;2023-05-14T07:27:46;18.20;;;16.48;;
39370;SDS011;25099;51.946;4.838;2023-05-14T07:30:12;22.00;;;16.90;;
39370;SDS011;25099;51.946;4.838;2023-05-14T07:32:37;20.15;;;16.35;;
39370;SDS011;25099;51.946;4.838;2023-05-14T07:35:03;20.27;;;16.85;;
39370;SDS011;25099;51.946;4.838;2023-05-14T07:37:29;22.52;;;17.02;;
39370;SDS011;25099;51.946;4.838;2023-05-14T07:39:54;24.55;;;17.85;;
39370;SDS011;25099;51.946;4.838;2023-05-14T07:42:20;22.58;;;18.02;;
39370;SDS011;25099;51.946;4.838;2023-05-14T07:44:46;23.77;;;16.88;;
39370;SDS011;25099;51.946;4.838;2023-05-14T07:47:11;25.35;;;17.20;;
39370;SDS011;25099;51.946;4.838;2023-05-14T07:49:37;18.05;;;15.80;;
39370;SDS011;25099;51.946;4.838;2023-05-14T07:52:02;28.83;;;16.85;;
39370;SDS011;25099;51.946;4.838;2023-05-14T07:54:28;23.35;;;17.48;;
39370;SDS011;25099;51.946;4.838;2023-05-14T07:56:53;25.52;;;19.88;;
39370;SDS011;25099;51.946;4.838;2023-05-14T07:59:19;24.70;;;21.00;;
39370;SDS011;25099;51.946;4.838;2023-05-14T08:01:45;27.00;;;20.80;;
39370;SDS011;25099;51.946;4.838;2023-05-14T08:04:10;27.08;;;21.80;;
39370;SDS011;25099;51.946;4.838;2023-05-14T08:06:36;27.88;;;22.17;;
39370;SDS011;25099;51.946;4.838;2023-05-14T08:09:02;32.58;;;23.88;;
39370;SDS011;25099;51.946;4.838;2023-05-14T08:11:29;29.30;;;23.98;;
39370;SDS011;25099;51.946;4.838;2023-05-14T08:13:55;28.73;;;23.38;;
39370;SDS011;25099;51.946;4.838;2023-05-14T08:16:21;31.55;;;23.30;;
39370;SDS011;25099;51.946;4.838;2023-05-14T08:18:47;29.45;;;24.33;;
39370;SDS011;25099;51.946;4.838;2023-05-14T08:21:13;36.53;;;25.13;;
39370;SDS011;25099;51.946;4.838;2023-05-14T08:23:38;28.30;;;24.13;;
39370;SDS011;25099;51.946;4.838;2023-05-14T08:26:04;54.78;;;24.58;;
39370;SDS011;25099;51.946;4.838;2023-05-14T08:28:30;31.50;;;24.42;;
39370;SDS011;25099;51.946;4.838;2023-05-14T08:30:55;30.20;;;23.85;;
39370;SDS011;25099;51.946;4.838;2023-05-14T08:33:21;29.63;;;24.23;;
39370;SDS011;25099;51.946;4.838;2023-05-14T08:35:48;31.35;;;23.75;;
39370;SDS011;25099;51.946;4.838;2023-05-14T08:38:15;28.77;;;21.13;;
39370;SDS011;25099;51.946;4.838;2023-05-14T08:40:41;29.80;;;20.73;;
39370;SDS011;25099;51.946;4.838;2023-05-14T08:43:06;25.17;;;20.17;;
39370;SDS011;25099;51.946;4.838;2023-05-14T08:45:34;33.03;;;21.83;;
39370;SDS011;25099;51.946;4.838;2023-05-14T08:48:02;28.42;;;21.10;;
39370;SDS011;25099;51.946;4.838;2023-05-14T08:52:59;23.50;;;16.08;;
39370;SDS011;25099;51.946;4.838;2023-05-14T08:55:25;17.23;;;14.05;;
39370;SDS011;25099;51.946;4.838;2023-05-14T08:57:52;19.70;;;14.80;;
39370;SDS011;25099;51.946;4.838;2023-05-14T09:00:18;23.40;;;16.52;;
39370;SDS011;25099;51.946;4.838;2023-05-14T09:02:44;29.27;;;18.65;;
39370;SDS011;25099;51.946;4.838;2023-05-14T09:05:11;19.48;;;15.20;;
39370;SDS011;25099;51.946;4.838;2023-05-14T09:07:37;21.50;;;15.60;;
39370;SDS011;25099;51.946;4.838;2023-05-14T09:10:03;19.98;;;14.63;;
39370;SDS011;25099;51.946;4.838;2023-05-14T09:12:29;15.98;;;14.05;;
39370;SDS011;25099;51.946;4.838;2023-05-14T09:14:55;22.17;;;14.55;;
39370;SDS011;25099;51.946;4.838;2023-05-14T09:17:20;16.35;;;14.68;;
39370;SDS011;25099;51.946;4.838;2023-05-14T09:19:49;16.60;;;14.80;;
39370;SDS011;25099;51.946;4.838;2023-05-14T09:22:17;17.00;;;13.70;;
39370;SDS011;25099;51.946;4.838;2023-05-14T09:24:43;20.42;;;14.23;;
39370;SDS011;25099;51.946;4.838;2023-05-14T09:27:14;23.60;;;16.35;;
39370;SDS011;25099;51.946;4.838;2023-05-14T09:29:46;19.48;;;15.85;;
39370;SDS011;25099;51.946;4.838;2023-05-14T09:32:12;34.15;;;14.45;;
39370;SDS011;25099;51.946;4.838;2023-05-14T09:34:38;18.80;;;13.82;;
39370;SDS011;25099;51.946;4.838;2023-05-14T09:37:05;24.65;;;14.73;;
39370;SDS011;25099;51.946;4.838;2023-05-14T09:39:32;14.77;;;13.30;;
39370;SDS011;25099;51.946;4.838;2023-05-14T09:41:58;18.52;;;14.07;;
39370;SDS011;25099;51.946;4.838;2023-05-14T09:44:24;16.42;;;13.13;;
39370;SDS011;25099;51.946;4.838;2023-05-14T09:46:50;18.98;;;13.77;;
39370;SDS011;25099;51.946;4.838;2023-05-14T09:49:16;20.83;;;14.07;;
39370;SDS011;25099;51.946;4.838;2023-05-14T09:51:42;14.98;;;13.48;;
39370;SDS011;25099;51.946;4.838;2023-05-14T09:54:07;14.80;;;13.25;;
39370;SDS011;25099;51.946;4.838;2023-05-14T09:56:34;22.10;;;14.35;;
39370;SDS011;25099;51.946;4.838;2023-05-14T09:59:00;24.38;;;13.50;;
39370;SDS011;25099;51.946;4.838;2023-05-14T10:01:27;17.08;;;12.82;;
39370;SDS011;25099;51.946;4.838;2023-05-14T10:03:53;18.30;;;13.52;;
39370;SDS011;25099;51.946;4.838;2023-05-14T10:06:21;18.35;;;12.82;;
39370;SDS011;25099;51.946;4.838;2023-05-14T10:08:50;17.35;;;13.32;;
39370;SDS011;25099;51.946;4.838;2023-05-14T10:11:23;17.23;;;12.68;;
39370;SDS011;25099;51.946;4.838;2023-05-14T10:13:58;15.13;;;12.85;;
39370;SDS011;25099;51.946;4.838;2023-05-14T10:16:45;17.13;;;14.20;;
39370;SDS011;25099;51.946;4.838;2023-05-14T10:19:14;19.20;;;13.10;;
39370;SDS011;25099;51.946;4.838;2023-05-14T10:21:40;20.45;;;13.38;;
39370;SDS011;25099;51.946;4.838;2023-05-14T10:24:09;16.52;;;13.05;;
39370;SDS011;25099;51.946;4.838;2023-05-14T10:26:37;16.80;;;12.07;;
39370;SDS011;25099;51.946;4.838;2023-05-14T10:29:05;19.88;;;11.90;;
39370;SDS011;25099;51.946;4.838;2023-05-14T10:31:50;14.95;;;12.75;;
39370;SDS011;25099;51.946;4.838;2023-05-14T10:34:36;14.95;;;11.85;;
39370;SDS011;25099;51.946;4.838;2023-05-14T10:37:05;20.63;;;12.77;;
39370;SDS011;25099;51.946;4.838;2023-05-14T10:42:31;17.48;;;12.52;;
39370;SDS011;25099;51.946;4.838;2023-05-14T10:45:04;23.65;;;13.75;;
39370;SDS011;25099;51.946;4.838;2023-05-14T10:47:38;21.05;;;13.45;;
39370;SDS011;25099;51.946;4.838;2023-05-14T10:50:07;18.60;;;13.32;;
39370;SDS011;25099;51.946;4.838;2023-05-14T10:52:34;17.73;;;12.63;;
39370;SDS011;25099;51.946;4.838;2023-05-14T10:55:03;26.15;;;13.18;;
39370;SDS011;25099;51.946;4.838;2023-05-14T10:57:35;27.60;;;13.05;;
39370;SDS011;25099;51.946;4.838;2023-05-14T11:00:02;13.57;;;12.13;;
39370;SDS011;25099;51.946;4.838;2023-05-14T11:02:32;23.23;;;13.25;;
39370;SDS011;25099;51.946;4.838;2023-05-14T11:05:01;14.27;;;11.18;;
39370;SDS011;25099;51.946;4.838;2023-05-14T11:07:32;23.92;;;11.32;;
39370;SDS011;25099;51.946;4.838;2023-05-14T11:10:06;14.15;;;10.43;;
39370;SDS011;25099;51.946;4.838;2023-05-14T11:12:35;13.70;;;11.65;;
39370;SDS011;25099;51.946;4.838;2023-05-14T11:15:04;16.67;;;12.15;;
39370;SDS011;25099;51.946;4.838;2023-05-14T11:17:34;14.13;;;11.07;;
39370;SDS011;25099;51.946;4.838;2023-05-14T11:20:00;13.95;;;11.23;;
39370;SDS011;25099;51.946;4.838;2023-05-14T11:22:26;17.00;;;11.80;;
39370;SDS011;25099;51.946;4.838;2023-05-14T11:24:52;13.98;;;10.73;;
39370;SDS011;25099;51.946;4.838;2023-05-14T11:27:18;14.57;;;11.43;;
39370;SDS011;25099;51.946;4.838;2023-05-14T11:29:45;17.15;;;11.85;;
39370;SDS011;25099;51.946;4.838;2023-05-14T11:32:12;11.98;;;10.95;;
39370;SDS011;25099;51.946;4.838;2023-05-14T11:34:39;14.35;;;10.23;;
39370;SDS011;25099;51.946;4.838;2023-05-14T11:37:05;13.55;;;10.52;;
39370;SDS011;25099;51.946;4.838;2023-05-14T11:39:32;17.00;;;10.25;;
39370;SDS011;25099;51.946;4.838;2023-05-14T11:42:09;16.02;;;10.82;;
39370;SDS011;25099;51.946;4.838;2023-05-14T11:44:40;17.55;;;8.93;;
39370;SDS011;25099;51.946;4.838;2023-05-14T11:47:08;13.13;;;8.90;;
39370;SDS011;25099;51.946;4.838;2023-05-14T11:49:34;12.57;;;9.60;;
39370;SDS011;25099;51.946;4.838;2023-05-14T11:52:02;13.27;;;8.90;;
39370;SDS011;25099;51.946;4.838;2023-05-14T11:54:30;12.27;;;9.30;;
39370;SDS011;25099;51.946;4.838;2023-05-14T11:56:56;16.75;;;9.45;;
39370;SDS011;25099;51.946;4.838;2023-05-14T11:59:24;13.05;;;9.40;;
39370;SDS011;25099;51.946;4.838;2023-05-14T12:01:56;17.50;;;10.35;;
39370;SDS011;25099;51.946;4.838;2023-05-14T12:04:22;13.52;;;9.85;;
39370;SDS011;25099;51.946;4.838;2023-05-14T12:06:48;20.27;;;10.35;;
39370;SDS011;25099;51.946;4.838;2023-05-14T12:09:15;20.20;;;9.30;;
39370;SDS011;25099;51.946;4.838;2023-05-14T12:11:42;16.60;;;9.60;;
39370;SDS011;25099;51.946;4.838;2023-05-14T12:14:11;13.73;;;10.10;;
39370;SDS011;25099;51.946;4.838;2023-05-14T12:16:40;15.73;;;10.18;;
39370;SDS011;25099;51.946;4.838;2023-05-14T12:19:07;13.60;;;9.60;;
39370;SDS011;25099;51.946;4.838;2023-05-14T12:21:35;12.73;;;9.23;;
39370;SDS011;25099;51.946;4.838;2023-05-14T12:24:02;12.27;;;9.55;;
39370;SDS011;25099;51.946;4.838;2023-05-14T12:26:30;17.13;;;9.45;;
39370;SDS011;25099;51.946;4.838;2023-05-14T12:29:01;13.70;;;10.52;;
39370;SDS011;25099;51.946;4.838;2023-05-14T12:31:30;9.73;;;8.60;;
39370;SDS011;25099;51.946;4.838;2023-05-14T12:33:58;16.83;;;10.77;;
39370;SDS011;25099;51.946;4.838;2023-05-14T12:36:23;11.85;;;9.35;;
39370;SDS011;25099;51.946;4.838;2023-05-14T12:38:50;11.82;;;9.10;;
39370;SDS011;25099;51.946;4.838;2023-05-14T12:41:22;12.18;;;8.90;;
39370;SDS011;25099;51.946;4.838;2023-05-14T12:43:48;17.67;;;10.77;;
39370;SDS011;25099;51.946;4.838;2023-05-14T12:46:13;10.65;;;9.52;;
39370;SDS011;25099;51.946;4.838;2023-05-14T12:48:39;13.65;;;9.50;;
39370;SDS011;25099;51.946;4.838;2023-05-14T12:51:05;13.13;;;9.70;;
39370;SDS011;25099;51.946;4.838;2023-05-14T12:53:30;14.10;;;9.32;;
39370;SDS011;25099;51.946;4.838;2023-05-14T12:55:56;23.20;;;10.15;;
39370;SDS011;25099;51.946;4.838;2023-05-14T12:58:21;13.07;;;10.18;;
39370;SDS011;25099;51.946;4.838;2023-05-14T13:00:47;12.18;;;9.82;;
39370;SDS011;25099;51.946;4.838;2023-05-14T13:03:12;11.48;;;8.88;;
39370;SDS011;25099;51.946;4.838;2023-05-14T13:05:38;12.00;;;9.40;;
39370;SDS011;25099;51.946;4.838;2023-05-14T13:08:04;12.73;;;9.50;;
39370;SDS011;25099;51.946;4.838;2023-05-14T13:10:29;15.63;;;9.07;;
39370;SDS011;25099;51.946;4.838;2023-05-14T13:12:55;11.43;;;8.20;;
39370;SDS011;25099;51.946;4.838;2023-05-14T13:15:21;11.07;;;8.88;;
39370;SDS011;25099;51.946;4.838;2023-05-14T13:17:46;12.85;;;7.97;;
39370;SDS011;25099;51.946;4.838;2023-05-14T13:20:12;13.15;;;8.32;;
39370;SDS011;25099;51.946;4.838;2023-05-14T13:22:38;10.50;;;7.82;;
39370;SDS011;25099;51.946;4.838;2023-05-14T13:25:03;11.40;;;6.80;;
39370;SDS011;25099;51.946;4.838;2023-05-14T13:27:30;12.68;;;9.27;;
39370;SDS011;25099;51.946;4.838;2023-05-14T13:29:56;12.50;;;8.32;;
39370;SDS011;25099;51.946;4.838;2023-05-14T13:32:22;9.95;;;8.93;;
39370;SDS011;25099;51.946;4.838;2023-05-14T13:34:48;16.63;;;9.82;;
39370;SDS011;25099;51.946;4.838;2023-05-14T13:37:14;16.65;;;10.48;;
39370;SDS011;25099;51.946;4.838;2023-05-14T13:39:39;12.27;;;9.00;;
39370;SDS011;25099;51.946;4.838;2023-05-14T13:42:05;13.65;;;9.27;;
39370;SDS011;25099;51.946;4.838;2023-05-14T13:44:30;12.52;;;9.75;;
39370;SDS011;25099;51.946;4.838;2023-05-14T13:46:56;13.85;;;9.02;;
39370;SDS011;25099;51.946;4.838;2023-05-14T13:49:21;12.80;;;9.93;;
39370;SDS011;25099;51.946;4.838;2023-05-14T13:51:47;12.75;;;8.38;;
39370;SDS011;25099;51.946;4.838;2023-05-14T13:54:13;14.50;;;8.75;;
39370;SDS011;25099;51.946;4.838;2023-05-14T13:56:38;18.92;;;10.18;;
39370;SDS011;25099;51.946;4.838;2023-05-14T13:59:04;16.10;;;10.02;;
39370;SDS011;25099;51.946;4.838;2023-05-14T14:01:29;12.63;;;9.07;;
39370;SDS011;25099;51.946;4.838;2023-05-14T14:03:55;18.52;;;9.30;;
39370;SDS011;25099;51.946;4.838;2023-05-14T14:06:21;21.58;;;9.10;;
39370;SDS011;25099;51.946;4.838;2023-05-14T14:08:46;12.10;;;8.20;;
39370;SDS011;25099;51.946;4.838;2023-05-14T14:11:12;12.95;;;10.35;;
39370;SDS011;25099;51.946;4.838;2023-05-14T14:13:38;16.95;;;9.20;;
39370;SDS011;25099;51.946;4.838;2023-05-14T14:16:04;17.05;;;9.20;;
39370;SDS011;25099;51.946;4.838;2023-05-14T14:18:30;21.65;;;9.35;;
39370;SDS011;25099;51.946;4.838;2023-05-14T14:20:56;18.45;;;8.77;;
39370;SDS011;25099;51.946;4.838;2023-05-14T14:23:22;19.60;;;9.55;;
39370;SDS011;25099;51.946;4.838;2023-05-14T14:25:47;21.00;;;9.55;;
39370;SDS011;25099;51.946;4.838;2023-05-14T14:28:13;16.58;;;9.80;;
39370;SDS011;25099;51.946;4.838;2023-05-14T14:30:38;17.15;;;9.98;;